sensor_id;sensor_type;location;lat;lon;timestamp;P1;durP1;ratioP1;P2;durP2;ratioP2
48367;SDS011;34173;47.446;18.912;2023-03-14T05:43:46;12.40;;;6.62;;
48367;SDS011;34173;47.446;18.912;2023-03-14T05:46:13;14.10;;;7.25;;
48367;SDS011;34173;47.446;18.912;2023-03-14T05:48:42;13.45;;;6.55;;
48367;SDS011;34173;47.446;18.912;2023-03-14T05:53:36;11.63;;;6.62;;
48367;SDS011;34173;47.446;18.912;2023-03-14T05:56:10;13.05;;;7.70;;
48367;SDS011;34173;47.446;18.912;2023-03-14T05:58:37;13.43;;;7.05;;
48367;SDS011;34173;47.446;18.912;2023-03-14T06:01:06;13.55;;;6.68;;
48367;SDS011;34173;47.446;18.912;2023-03-14T06:03:34;13.30;;;6.82;;
48367;SDS011;34173;47.446;18.912;2023-03-14T06:06:03;11.70;;;5.87;;
48367;SDS011;34173;47.446;18.912;2023-03-14T06:08:31;12.18;;;6.53;;
48367;SDS011;34173;47.446;18.912;2023-03-14T06:10:59;13.48;;;7.03;;
48367;SDS011;34173;47.446;18.912;2023-03-14T06:13:27;11.98;;;6.50;;
48367;SDS011;34173;47.446;18.912;2023-03-14T06:15:54;11.90;;;6.40;;
48367;SDS011;34173;47.446;18.912;2023-03-14T06:18:22;13.07;;;5.87;;
48367;SDS011;34173;47.446;18.912;2023-03-14T06:20:52;11.35;;;6.37;;
48367;SDS011;34173;47.446;18.912;2023-03-14T06:23:24;12.93;;;6.68;;
48367;SDS011;34173;47.446;18.912;2023-03-14T06:25:52;12.05;;;6.28;;
48367;SDS011;34173;47.446;18.912;2023-03-14T06:28:20;10.60;;;6.05;;
48367;SDS011;34173;47.446;18.912;2023-03-14T06:30:48;13.18;;;6.07;;
48367;SDS011;34173;47.446;18.912;2023-03-14T06:33:16;11.90;;;6.10;;
48367;SDS011;34173;47.446;18.912;2023-03-14T06:35:43;10.27;;;5.72;;
48367;SDS011;34173;47.446;18.912;2023-03-14T06:38:11;15.10;;;7.78;;
48367;SDS011;34173;47.446;18.912;2023-03-14T06:40:39;11.70;;;5.75;;
48367;SDS011;34173;47.446;18.912;2023-03-14T06:43:07;15.50;;;6.15;;
48367;SDS011;34173;47.446;18.912;2023-03-14T06:45:35;13.10;;;6.80;;
48367;SDS011;34173;47.446;18.912;2023-03-14T06:48:03;9.85;;;6.18;;
48367;SDS011;34173;47.446;18.912;2023-03-14T06:50:31;12.63;;;6.22;;
48367;SDS011;34173;47.446;18.912;2023-03-14T06:52:59;9.63;;;5.78;;
48367;SDS011;34173;47.446;18.912;2023-03-14T06:55:27;14.10;;;6.72;;
48367;SDS011;34173;47.446;18.912;2023-03-14T06:57:56;13.85;;;6.40;;
48367;SDS011;34173;47.446;18.912;2023-03-14T07:00:24;11.15;;;6.30;;
48367;SDS011;34173;47.446;18.912;2023-03-14T07:02:52;13.85;;;6.43;;
48367;SDS011;34173;47.446;18.912;2023-03-14T07:05:21;11.63;;;6.20;;
48367;SDS011;34173;47.446;18.912;2023-03-14T07:07:48;13.10;;;6.07;;
48367;SDS011;34173;47.446;18.912;2023-03-14T07:10:17;12.65;;;6.10;;
48367;SDS011;34173;47.446;18.912;2023-03-14T07:12:44;12.30;;;6.55;;
48367;SDS011;34173;47.446;18.912;2023-03-14T07:15:12;13.32;;;6.18;;
48367;SDS011;34173;47.446;18.912;2023-03-14T07:17:46;14.57;;;6.65;;
48367;SDS011;34173;47.446;18.912;2023-03-14T07:20:17;11.93;;;6.72;;
48367;SDS011;34173;47.446;18.912;2023-03-14T07:22:47;9.48;;;5.87;;
48367;SDS011;34173;47.446;18.912;2023-03-14T07:25:16;10.45;;;6.07;;
48367;SDS011;34173;47.446;18.912;2023-03-14T07:27:44;14.30;;;6.20;;
48367;SDS011;34173;47.446;18.912;2023-03-14T07:30:13;12.77;;;6.22;;
48367;SDS011;34173;47.446;18.912;2023-03-14T07:32:41;12.75;;;7.05;;
48367;SDS011;34173;47.446;18.912;2023-03-14T07:35:09;14.50;;;6.20;;
48367;SDS011;34173;47.446;18.912;2023-03-14T07:37:37;12.60;;;6.37;;
48367;SDS011;34173;47.446;18.912;2023-03-14T07:40:05;13.00;;;6.25;;
48367;SDS011;34173;47.446;18.912;2023-03-14T07:42:34;12.15;;;7.15;;
48367;SDS011;34173;47.446;18.912;2023-03-14T07:45:08;12.45;;;6.35;;
48367;SDS011;34173;47.446;18.912;2023-03-14T07:47:36;10.68;;;6.20;;
48367;SDS011;34173;47.446;18.912;2023-03-14T07:50:04;10.93;;;6.32;;
48367;SDS011;34173;47.446;18.912;2023-03-14T07:52:33;12.70;;;6.97;;
48367;SDS011;34173;47.446;18.912;2023-03-14T07:55:01;12.37;;;7.25;;
48367;SDS011;34173;47.446;18.912;2023-03-14T07:57:29;11.23;;;6.55;;
48367;SDS011;34173;47.446;18.912;2023-03-14T07:59:56;12.18;;;6.18;;
48367;SDS011;34173;47.446;18.912;2023-03-14T08:02:24;9.93;;;5.70;;
48367;SDS011;34173;47.446;18.912;2023-03-14T08:04:52;11.40;;;6.70;;
48367;SDS011;34173;47.446;18.912;2023-03-14T08:07:19;14.48;;;5.87;;
48367;SDS011;34173;47.446;18.912;2023-03-14T08:09:47;12.20;;;6.22;;
48367;SDS011;34173;47.446;18.912;2023-03-14T08:12:15;10.23;;;5.50;;
48367;SDS011;34173;47.446;18.912;2023-03-14T08:14:43;9.27;;;5.18;;
48367;SDS011;34173;47.446;18.912;2023-03-14T08:17:11;10.18;;;5.43;;
48367;SDS011;34173;47.446;18.912;2023-03-14T08:19:40;14.13;;;5.53;;
48367;SDS011;34173;47.446;18.912;2023-03-14T08:22:08;9.75;;;5.85;;
48367;SDS011;34173;47.446;18.912;2023-03-14T08:24:35;10.10;;;5.68;;
48367;SDS011;34173;47.446;18.912;2023-03-14T08:27:03;9.98;;;5.90;;
48367;SDS011;34173;47.446;18.912;2023-03-14T08:29:31;12.43;;;6.55;;
48367;SDS011;34173;47.446;18.912;2023-03-14T08:31:58;10.98;;;6.62;;
48367;SDS011;34173;47.446;18.912;2023-03-14T08:34:26;11.20;;;5.50;;
48367;SDS011;34173;47.446;18.912;2023-03-14T08:36:53;9.63;;;5.60;;
48367;SDS011;34173;47.446;18.912;2023-03-14T09:11:28;8.25;;;3.80;;
48367;SDS011;34173;47.446;18.912;2023-03-14T09:13:55;6.87;;;4.10;;
48367;SDS011;34173;47.446;18.912;2023-03-14T09:16:23;8.45;;;4.32;;
48367;SDS011;34173;47.446;18.912;2023-03-14T09:18:53;7.60;;;3.45;;
48367;SDS011;34173;47.446;18.912;2023-03-14T09:21:27;7.32;;;3.67;;
48367;SDS011;34173;47.446;18.912;2023-03-14T09:23:54;7.40;;;4.35;;
48367;SDS011;34173;47.446;18.912;2023-03-14T09:26:21;6.68;;;4.12;;
48367;SDS011;34173;47.446;18.912;2023-03-14T09:28:49;11.68;;;4.20;;
48367;SDS011;34173;47.446;18.912;2023-03-14T09:31:17;6.87;;;4.30;;
48367;SDS011;34173;47.446;18.912;2023-03-14T09:33:44;8.20;;;4.28;;
48367;SDS011;34173;47.446;18.912;2023-03-14T09:36:12;12.07;;;4.75;;
48367;SDS011;34173;47.446;18.912;2023-03-14T09:38:40;9.77;;;3.60;;
48367;SDS011;34173;47.446;18.912;2023-03-14T09:41:13;10.00;;;3.00;;
48367;SDS011;34173;47.446;18.912;2023-03-14T09:43:43;7.15;;;2.83;;
48367;SDS011;34173;47.446;18.912;2023-03-14T09:46:12;4.50;;;2.20;;
48367;SDS011;34173;47.446;18.912;2023-03-14T09:48:41;5.30;;;1.85;;
48367;SDS011;34173;47.446;18.912;2023-03-14T09:51:12;4.05;;;1.10;;
48367;SDS011;34173;47.446;18.912;2023-03-14T09:53:42;4.28;;;1.20;;
48367;SDS011;34173;47.446;18.912;2023-03-14T09:56:27;2.37;;;0.80;;
48367;SDS011;34173;47.446;18.912;2023-03-14T09:58:59;4.00;;;0.80;;
48367;SDS011;34173;47.446;18.912;2023-03-14T10:01:28;3.65;;;1.10;;
48367;SDS011;34173;47.446;18.912;2023-03-14T10:04:00;3.78;;;0.88;;
48367;SDS011;34173;47.446;18.912;2023-03-14T10:06:31;4.85;;;1.00;;
48367;SDS011;34173;47.446;18.912;2023-03-14T10:08:59;6.28;;;1.17;;
48367;SDS011;34173;47.446;18.912;2023-03-14T10:11:28;2.20;;;0.95;;
48367;SDS011;34173;47.446;18.912;2023-03-14T10:14:06;5.40;;;1.00;;
48367;SDS011;34173;47.446;18.912;2023-03-14T10:16:36;6.10;;;1.12;;
48367;SDS011;34173;47.446;18.912;2023-03-14T10:19:10;5.90;;;1.10;;
48367;SDS011;34173;47.446;18.912;2023-03-14T10:21:41;4.30;;;0.82;;
48367;SDS011;34173;47.446;18.912;2023-03-14T10:24:30;4.95;;;1.42;;
48367;SDS011;34173;47.446;18.912;2023-03-14T10:29:30;3.67;;;0.90;;
48367;SDS011;34173;47.446;18.912;2023-03-14T10:32:03;2.78;;;1.10;;
48367;SDS011;34173;47.446;18.912;2023-03-14T10:34:33;4.20;;;1.08;;
48367;SDS011;34173;47.446;18.912;2023-03-14T10:37:16;2.87;;;1.00;;
48367;SDS011;34173;47.446;18.912;2023-03-14T10:39:46;7.07;;;1.10;;
48367;SDS011;34173;47.446;18.912;2023-03-14T10:42:28;2.55;;;0.90;;
48367;SDS011;34173;47.446;18.912;2023-03-14T10:45:04;6.75;;;1.15;;
48367;SDS011;34173;47.446;18.912;2023-03-14T10:47:38;3.45;;;1.40;;
48367;SDS011;34173;47.446;18.912;2023-03-14T10:50:23;5.57;;;1.15;;
48367;SDS011;34173;47.446;18.912;2023-03-14T10:52:52;3.30;;;1.10;;
48367;SDS011;34173;47.446;18.912;2023-03-14T10:55:32;3.35;;;1.23;;
48367;SDS011;34173;47.446;18.912;2023-03-14T11:01:16;4.03;;;1.10;;
48367;SDS011;34173;47.446;18.912;2023-03-14T11:03:57;4.72;;;1.10;;
48367;SDS011;34173;47.446;18.912;2023-03-14T11:12:22;5.57;;;1.25;;
48367;SDS011;34173;47.446;18.912;2023-03-14T11:15:25;3.25;;;0.90;;
48367;SDS011;34173;47.446;18.912;2023-03-14T11:20:52;1.77;;;0.70;;
48367;SDS011;34173;47.446;18.912;2023-03-14T11:23:24;2.22;;;0.85;;
48367;SDS011;34173;47.446;18.912;2023-03-14T11:31:27;2.92;;;0.90;;
